createdAt,value
2022-10-03T00:01:56.165Z,98386.78
2022-10-03T00:04:41.959Z,98386.84
2022-10-03T00:07:33.654Z,98387.31
2022-10-03T00:10:18.328Z,98391.84
2022-10-03T00:12:57.702Z,98384.97
2022-10-03T00:15:30.498Z,98391.38
2022-10-03T00:18:35.517Z,98392.72
2022-10-03T00:21:18.164Z,98393.84
2022-10-03T00:24:17.667Z,98395.13
2022-10-03T00:27:00.459Z,98395.84
2022-10-03T00:29:40.205Z,98391.41
2022-10-03T00:32:22.783Z,98383.03
2022-10-03T00:35:13.618Z,98391.50
2022-10-03T00:37:50.603Z,98388.38
2022-10-03T00:40:43.273Z,98393.94
2022-10-03T00:43:36.170Z,98393.41
2022-10-03T00:46:42.209Z,98402.03
2022-10-03T00:49:21.615Z,98395.09
2022-10-03T00:52:30.132Z,98402.91
2022-10-03T00:55:01.033Z,98397.78
2022-10-03T00:58:04.100Z,98403.44
2022-10-03T01:00:34.042Z,98396.31
2022-10-03T01:03:09.712Z,98393.50
2022-10-03T01:05:55.848Z,98382.69
2022-10-03T01:08:48.454Z,98388.91
2022-10-03T01:11:31.793Z,98387.16
2022-10-03T01:14:11.228Z,98397.44
2022-10-03T01:17:02.520Z,98395.16
2022-10-03T01:20:15.589Z,98393.34
2022-10-03T01:23:13.726Z,98398.38
2022-10-03T01:25:59.721Z,98390.66
2022-10-03T01:29:01.625Z,98389.06
2022-10-03T01:31:47.615Z,98386.19
2022-10-03T01:34:40.662Z,98398.56
2022-10-03T01:37:11.800Z,98397.34
2022-10-03T01:40:12.265Z,98401.19
2022-10-03T01:42:55.781Z,98394.53
2022-10-03T01:45:44.965Z,98401.75
2022-10-03T01:48:22.644Z,98390.66
2022-10-03T01:51:17.132Z,98401.59
2022-10-03T01:53:59.505Z,98403.69
2022-10-03T01:56:48.286Z,98407.28
2022-10-03T01:59:43.124Z,98397.94
2022-10-03T02:02:18.243Z,98390.38
2022-10-03T02:04:52.072Z,98401.59
2022-10-03T02:07:26.148Z,98395.56
2022-10-03T02:10:00.236Z,98397.94
2022-10-03T02:12:38.583Z,98399.41
2022-10-03T02:15:06.113Z,98413.28
2022-10-03T02:17:45.876Z,98409.28
2022-10-03T02:20:56.376Z,98414.47
2022-10-03T02:23:32.631Z,98418.66
2022-10-03T02:26:58.702Z,98413.16
2022-10-03T02:29:38.441Z,98418.66
2022-10-03T02:32:55.289Z,98425.09
2022-10-03T02:35:46.907Z,98420.22
2022-10-03T02:38:29.617Z,98421.09
2022-10-03T02:41:34.556Z,98434.31
2022-10-03T02:44:26.678Z,98414.88
2022-10-03T02:47:11.969Z,98418.66
2022-10-03T02:49:45.463Z,98413.25
2022-10-03T02:52:34.242Z,98426.50
2022-10-03T02:55:38.823Z,98425.91
2022-10-03T02:58:37.793Z,98420.56
2022-10-03T03:01:23.842Z,98424.44
2022-10-03T03:04:29.558Z,98423.00
2022-10-03T03:07:11.118Z,98432.25
2022-10-03T03:10:09.554Z,98442.06
2022-10-03T03:13:01.084Z,98445.50
2022-10-03T03:16:33.370Z,98434.41
2022-10-03T03:19:24.728Z,98443.38
2022-10-03T03:22:01.993Z,98437.59
2022-10-03T03:25:01.439Z,98441.09
2022-10-03T03:27:40.646Z,98440.19
2022-10-03T03:30:24.106Z,98436.81
2022-10-03T03:32:58.270Z,98444.94
2022-10-03T03:35:41.189Z,98443.50
2022-10-03T03:38:19.369Z,98442.34
2022-10-03T03:40:58.791Z,98442.06
2022-10-03T03:43:41.189Z,98446.84
2022-10-03T03:46:35.054Z,98449.31
2022-10-03T03:49:14.973Z,98443.19
2022-10-03T03:51:54.187Z,98443.03
2022-10-03T03:54:46.098Z,98453.34
2022-10-03T03:57:37.630Z,98450.81
2022-10-03T04:00:21.484Z,98445.63
2022-10-03T04:03:01.642Z,98448.69
2022-10-03T04:05:50.866Z,98455.84
2022-10-03T04:08:35.405Z,98450.38
2022-10-03T04:11:25.535Z,98438.41
2022-10-03T04:14:30.145Z,98446.75
2022-10-03T04:17:40.136Z,98455.00
2022-10-03T04:20:30.548Z,98459.31
2022-10-03T04:23:19.797Z,98452.75
2022-10-03T04:26:13.207Z,98459.84
2022-10-03T04:29:22.681Z,98468.16
2022-10-03T04:32:35.150Z,98464.75
2022-10-03T04:35:29.778Z,98469.44
2022-10-03T04:38:24.141Z,98473.75
2022-10-03T04:41:17.084Z,98476.59
2022-10-03T04:43:52.809Z,98473.97
2022-10-03T04:46:56.495Z,98483.63
2022-10-03T04:49:32.587Z,98481.34
2022-10-03T04:52:14.821Z,98485.28
2022-10-03T04:54:48.682Z,98477.78
2022-10-03T04:57:28.108Z,98479.59
2022-10-03T05:00:21.185Z,98475.25
2022-10-03T05:02:59.425Z,98477.53
2022-10-03T05:05:44.974Z,98472.88
2022-10-03T05:08:41.596Z,98484.19
2022-10-03T05:11:09.055Z,98476.31
2022-10-03T05:13:54.011Z,98482.13
2022-10-03T05:16:43.230Z,98469.28
2022-10-03T05:19:29.270Z,98468.09
2022-10-03T05:22:19.640Z,98474.94
2022-10-03T05:25:15.451Z,98477.66
2022-10-03T05:27:54.709Z,98473.19
2022-10-03T05:30:28.210Z,98475.22
2022-10-03T05:33:08.344Z,98482.22
2022-10-03T05:35:45.393Z,98468.50
2022-10-03T05:38:34.624Z,98478.88
2022-10-03T05:41:26.135Z,98466.84
2022-10-03T05:44:19.550Z,98467.97
2022-10-03T05:47:45.869Z,98471.22
2022-10-03T05:50:38.518Z,98470.38
2022-10-03T05:53:52.442Z,98480.03
2022-10-03T05:56:53.128Z,98479.66
2022-10-03T05:59:35.120Z,98468.72
2022-10-03T06:02:34.265Z,98459.84
2022-10-03T06:05:28.689Z,98461.78
2022-10-03T06:08:17.340Z,98470.69
2022-10-03T06:11:03.458Z,98461.31
2022-10-03T06:13:48.890Z,98462.09
2022-10-03T06:16:45.691Z,98463.75
2022-10-03T06:19:51.596Z,98463.06
2022-10-03T06:22:51.045Z,98470.00
2022-10-03T06:25:44.829Z,98458.03
2022-10-03T06:28:31.164Z,98465.16
2022-10-03T06:31:43.472Z,98459.84
2022-10-03T06:34:39.765Z,98475.59
2022-10-03T06:37:40.228Z,98461.63
2022-10-03T06:40:29.393Z,98475.50
2022-10-03T06:42:59.322Z,98462.34
2022-10-03T06:45:38.518Z,98461.50
2022-10-03T06:48:14.863Z,98465.44
2022-10-03T06:50:53.935Z,98462.44
2022-10-03T06:53:26.966Z,98466.53
2022-10-03T06:56:16.246Z,98460.88
2022-10-03T06:59:10.386Z,98467.16
2022-10-03T07:02:12.056Z,98464.53
2022-10-03T07:05:02.765Z,98462.25
2022-10-03T07:07:46.146Z,98472.00
2022-10-03T07:10:28.845Z,98461.88
2022-10-03T07:13:11.511Z,98461.28
2022-10-03T07:16:26.028Z,98466.81
2022-10-03T07:19:13.274Z,98466.97
2022-10-03T07:22:11.115Z,98465.81
2022-10-03T07:24:56.836Z,98461.53
2022-10-03T07:27:46.274Z,98458.97
2022-10-03T07:30:24.836Z,98457.38
2022-10-03T07:33:24.557Z,98468.38
2022-10-03T07:36:38.721Z,98464.13
2022-10-03T07:39:32.264Z,98459.78
2022-10-03T07:42:26.176Z,98470.00
2022-10-03T07:45:19.573Z,98466.66
2022-10-03T07:48:14.411Z,98463.22
2022-10-03T07:50:50.770Z,98467.56
2022-10-03T07:53:33.736Z,98473.06
2022-10-03T07:56:08.723Z,98466.47
2022-10-03T07:58:44.680Z,98477.78
2022-10-03T08:01:40.718Z,98472.38
2022-10-03T08:04:45.928Z,98476.69
2022-10-03T08:07:38.044Z,98473.97
2022-10-03T08:10:29.618Z,98481.13
2022-10-03T08:13:12.524Z,98477.66
2022-10-03T08:16:15.539Z,98479.59
2022-10-03T08:19:19.416Z,98481.56
2022-10-03T08:22:07.186Z,98480.03
2022-10-03T08:25:01.961Z,98490.09
2022-10-03T08:28:04.931Z,98473.75
2022-10-03T08:30:52.903Z,98480.38
2022-10-03T08:33:32.527Z,98476.41
2022-10-03T08:36:21.597Z,98486.56
2022-10-03T08:39:10.480Z,98483.50
2022-10-03T08:41:38.089Z,98476.78
2022-10-03T08:44:42.947Z,98484.28
2022-10-03T08:47:48.386Z,98492.47
2022-10-03T08:50:50.329Z,98490.91
2022-10-03T08:53:37.452Z,98490.47
2022-10-03T08:56:23.494Z,98487.75
2022-10-03T08:59:37.903Z,98488.63
2022-10-03T09:02:36.064Z,98487.47
2022-10-03T09:05:34.493Z,98491.03
2022-10-03T09:08:14.009Z,98491.00
2022-10-03T09:11:08.659Z,98490.69
2022-10-03T09:13:58.126Z,98493.03
2022-10-03T09:16:41.094Z,98487.63
2022-10-03T09:19:20.073Z,98484.91
2022-10-03T09:22:02.630Z,98489.63
2022-10-03T09:24:39.249Z,98494.31
2022-10-03T09:27:31.788Z,98488.50
2022-10-03T09:30:13.162Z,98493.56
2022-10-03T09:32:57.522Z,98490.81
2022-10-03T09:35:43.835Z,98495.63
2022-10-03T09:38:33.060Z,98503.78
2022-10-03T09:41:15.923Z,98502.63
2022-10-03T09:44:03.558Z,98498.38
2022-10-03T09:46:30.971Z,98495.25
2022-10-03T09:49:29.510Z,98500.75
2022-10-03T09:52:18.679Z,98498.03
2022-10-03T09:55:13.254Z,98504.66
2022-10-03T09:57:59.131Z,98501.88
2022-10-03T10:00:51.451Z,98507.78
2022-10-03T10:03:51.183Z,98510.91
2022-10-03T10:06:50.923Z,98510.88
2022-10-03T10:09:47.263Z,98511.69
2022-10-03T10:12:47.034Z,98515.59
2022-10-03T10:15:30.407Z,98519.88
2022-10-03T10:18:06.874Z,98520.25
2022-10-03T10:21:07.648Z,98517.16
2022-10-03T10:23:58.648Z,98528.84
2022-10-03T10:27:16.698Z,98520.28
2022-10-03T10:30:22.157Z,98532.78
2022-10-03T10:33:01.750Z,98539.81
2022-10-03T10:36:11.252Z,98533.59
2022-10-03T10:39:05.998Z,98542.56
2022-10-03T10:41:39.729Z,98545.28
2022-10-03T10:44:41.470Z,98536.75
2022-10-03T10:47:12.904Z,98544.16
2022-10-03T10:50:04.107Z,98547.66
2022-10-03T10:52:50.203Z,98542.97
2022-10-03T10:55:54.471Z,98546.91
2022-10-03T10:58:58.378Z,98545.75
2022-10-03T11:01:59.983Z,98557.88
2022-10-03T11:05:07.447Z,98555.53
2022-10-03T11:08:14.183Z,98558.28
2022-10-03T11:47:21.356Z,98574.88
2022-10-03T11:50:36.772Z,98578.81
2022-10-03T11:53:44.977Z,98580.84
2022-10-03T11:56:27.517Z,98582.03
2022-10-03T11:59:07.037Z,98581.25
2022-10-03T12:01:50.828Z,98579.31
2022-10-03T12:04:37.210Z,98580.50
2022-10-03T12:08:04.421Z,98580.09
2022-10-03T12:11:00.756Z,98582.03
2022-10-03T12:13:37.262Z,98578.91
2022-10-03T12:16:12.935Z,98589.84
2022-10-03T12:18:43.318Z,98587.88
2022-10-03T12:21:22.181Z,98593.75
2022-10-03T12:24:27.160Z,98587.50
2022-10-03T12:27:16.377Z,98596.47
2022-10-03T12:29:52.655Z,98584.75
2022-10-03T12:32:34.665Z,98576.56
2022-10-03T12:35:20.907Z,98592.97
2022-10-03T12:37:51.131Z,98580.06
2022-10-03T12:40:30.900Z,98589.84
2022-10-03T12:43:11.011Z,98588.69
2022-10-03T12:45:44.359Z,98592.97
2022-10-03T12:48:49.266Z,98592.19
2022-10-03T12:51:48.083Z,98588.69
2022-10-03T12:54:29.473Z,98591.78
2022-10-03T12:57:15.556Z,98594.16
2022-10-03T12:59:54.091Z,98596.44
2022-10-03T13:02:35.712Z,98602.31
2022-10-03T13:05:31.092Z,98608.53
2022-10-03T13:08:11.986Z,98600.34
2022-10-03T13:10:43.818Z,98605.78
2022-10-03T13:13:38.361Z,98609.31
2022-10-03T13:16:54.503Z,98609.72
2022-10-03T13:19:31.016Z,98608.50
2022-10-03T13:22:29.008Z,98613.19
2022-10-03T13:25:14.092Z,98606.19
2022-10-03T13:27:47.208Z,98612.38
2022-10-03T13:30:14.706Z,98608.84
2022-10-03T13:32:47.168Z,98624.06
2022-10-03T13:35:52.954Z,98614.31
2022-10-03T13:38:51.569Z,98619.44
2022-10-03T13:41:40.749Z,98633.84
2022-10-03T13:44:24.034Z,98625.59
2022-10-03T13:47:03.332Z,98631.03
2022-10-03T13:49:48.759Z,98632.22
2022-10-03T13:52:39.342Z,98631.78
2022-10-03T13:55:41.727Z,98635.72
2022-10-03T13:58:17.980Z,98630.34
2022-10-03T14:01:23.566Z,98632.59
2022-10-03T14:04:12.377Z,98632.19
2022-10-03T14:07:03.176Z,98639.53
2022-10-03T14:10:00.767Z,98644.16
2022-10-03T14:12:55.432Z,98639.84
2022-10-03T14:15:49.670Z,98646.03
2022-10-03T14:18:45.199Z,98643.31
2022-10-03T14:21:40.272Z,98646.38
2022-10-03T14:24:36.678Z,98642.09
2022-10-03T14:27:29.372Z,98653.75
2022-10-03T14:30:13.919Z,98664.22
2022-10-03T14:33:07.134Z,98657.19
2022-10-03T14:35:53.552Z,98647.34
2022-10-03T14:39:00.919Z,98657.16
2022-10-03T14:41:45.460Z,98657.94
2022-10-03T14:44:24.182Z,98656.66
2022-10-03T14:46:59.100Z,98660.22
2022-10-03T14:49:53.525Z,98652.38
2022-10-03T14:52:23.467Z,98655.47
2022-10-03T14:54:54.808Z,98660.13
2022-10-03T14:58:11.372Z,98661.81
2022-10-03T15:00:55.672Z,98661.44
2022-10-03T15:03:30.740Z,98656.44
2022-10-03T15:06:48.559Z,98658.06
2022-10-03T15:09:20.558Z,98659.19
2022-10-03T15:12:08.351Z,98652.56
2022-10-03T15:14:41.226Z,98657.28
2022-10-03T15:17:24.541Z,98652.63
2022-10-03T15:19:55.777Z,98655.81
2022-10-03T15:22:47.105Z,98647.56
2022-10-03T15:25:37.964Z,98648.34
2022-10-03T15:28:30.130Z,98653.78
2022-10-03T15:31:08.869Z,98659.53
2022-10-03T15:33:38.747Z,98652.50
2022-10-03T15:36:24.987Z,98653.22
2022-10-03T15:38:55.928Z,98654.38
2022-10-03T15:41:37.776Z,98653.28
2022-10-03T15:44:21.279Z,98651.34
2022-10-03T15:46:52.973Z,98653.78
2022-10-03T15:49:40.405Z,98655.34
2022-10-03T15:52:20.555Z,98655.69
2022-10-03T15:55:03.111Z,98659.53
2022-10-03T15:57:45.019Z,98662.31
2022-10-03T16:00:31.247Z,98667.00
2022-10-03T16:03:24.447Z,98674.78
2022-10-03T16:06:47.960Z,98667.03
2022-10-03T16:09:50.623Z,98678.69
2022-10-03T16:12:36.918Z,98653.97
2022-10-03T16:15:47.005Z,98682.22
2022-10-03T16:18:20.171Z,98672.44
2022-10-03T16:20:54.418Z,98678.25
2022-10-03T16:23:29.966Z,98676.34
2022-10-03T16:26:02.693Z,98672.41
2022-10-03T16:28:51.925Z,98672.84
2022-10-03T16:31:37.155Z,98674.38
2022-10-03T16:34:14.864Z,98676.34
2022-10-03T16:36:50.648Z,98678.22
2022-10-03T16:39:36.000Z,98677.81
2022-10-03T16:42:25.894Z,98667.38
2022-10-03T16:44:55.815Z,98675.78
2022-10-03T16:47:36.533Z,98678.53
2022-10-03T16:50:27.863Z,98679.19
2022-10-03T16:52:59.174Z,98683.50
2022-10-03T16:55:36.813Z,98683.50
2022-10-03T16:58:31.410Z,98690.47
2022-10-03T17:04:26.535Z,98700.16
2022-10-03T17:06:59.046Z,98688.75
2022-10-03T17:09:46.455Z,98692.22
2022-10-03T17:12:23.664Z,98700.69
2022-10-03T17:14:53.633Z,98698.28
2022-10-03T17:17:45.349Z,98695.94
2022-10-03T17:20:34.947Z,98695.88
2022-10-03T17:23:28.353Z,98694.03
2022-10-03T17:26:02.546Z,98699.03
2022-10-03T17:28:41.727Z,98695.19
2022-10-03T17:31:44.227Z,98700.28
2022-10-03T17:34:19.059Z,98699.41
2022-10-03T17:36:59.656Z,98706.94
2022-10-03T17:39:48.089Z,98704.59
2022-10-03T17:42:29.213Z,98707.63
2022-10-03T17:45:02.736Z,98705.75
2022-10-03T17:47:57.840Z,98708.47
2022-10-03T17:50:30.856Z,98708.81
2022-10-03T17:53:00.975Z,98709.94
2022-10-03T17:55:38.219Z,98700.66
2022-10-03T17:58:12.836Z,98706.44
2022-10-03T18:00:46.326Z,98705.03
2022-10-03T18:03:25.406Z,98675.69
2022-10-03T18:05:58.371Z,98709.97
2022-10-03T18:08:31.963Z,98704.59
2022-10-03T18:11:02.714Z,98700.91
2022-10-03T18:13:45.567Z,98701.94
2022-10-03T18:16:31.349Z,98705.91
2022-10-03T18:19:30.038Z,98703.56
2022-10-03T18:22:12.688Z,98704.66
2022-10-03T18:25:34.243Z,98705.91
2022-10-03T18:28:05.249Z,98702.53
2022-10-03T18:30:51.847Z,98708.25
2022-10-03T18:33:42.774Z,98708.19
2022-10-03T18:36:25.858Z,98696.09
2022-10-03T18:38:59.892Z,98701.91
2022-10-03T18:41:28.019Z,98706.94
2022-10-03T18:44:00.636Z,98707.69
2022-10-03T18:46:40.599Z,98710.03
2022-10-03T18:52:28.112Z,98720.31
2022-10-03T18:55:03.677Z,98712.00
2022-10-03T18:57:39.445Z,98715.53
2022-10-03T19:00:21.632Z,98730.41
2022-10-03T19:02:52.805Z,98726.50
2022-10-03T19:05:59.072Z,98729.69
2022-10-03T19:08:33.092Z,98732.31
2022-10-03T19:11:29.306Z,98733.59
2022-10-03T19:14:27.135Z,98734.78
2022-10-03T19:17:06.410Z,98732.75
2022-10-03T19:19:59.071Z,98721.84
2022-10-03T19:22:39.894Z,98733.13
2022-10-03T19:25:25.215Z,98722.97
2022-10-03T19:28:14.430Z,98727.69
2022-10-03T19:30:43.505Z,98732.25
2022-10-03T19:33:24.335Z,98735.47
2022-10-03T19:35:56.241Z,98732.25
2022-10-03T19:38:29.505Z,98731.09
2022-10-03T19:41:15.759Z,98735.94
2022-10-03T19:43:50.323Z,98731.53
2022-10-03T19:46:37.934Z,98733.22
2022-10-03T19:49:21.975Z,98731.06
2022-10-03T19:51:49.680Z,98732.59
2022-10-03T19:54:35.325Z,98728.44
2022-10-03T19:57:04.834Z,98736.09
2022-10-03T19:59:47.494Z,98742.81
2022-10-03T20:02:15.145Z,98749.28
2022-10-03T20:05:01.747Z,98749.66
2022-10-03T20:07:37.001Z,98754.34
2022-10-03T20:10:18.778Z,98754.03
2022-10-03T20:12:51.533Z,98753.22
2022-10-03T20:15:26.815Z,98758.31
2022-10-03T20:18:01.945Z,98758.28
2022-10-03T20:20:33.515Z,98762.94
2022-10-03T20:23:14.773Z,98766.50
2022-10-03T20:25:52.814Z,98766.44
2022-10-03T20:28:27.825Z,98759.41
2022-10-03T20:30:55.572Z,98754.72
2022-10-03T20:33:28.535Z,98767.97
2022-10-03T20:36:14.401Z,98765.72
2022-10-03T20:38:47.395Z,98764.53
2022-10-03T20:41:29.806Z,98768.06
2022-10-03T20:44:10.345Z,98768.06
2022-10-03T20:46:42.088Z,98769.53
2022-10-03T20:49:27.306Z,98778.13
2022-10-03T20:51:54.710Z,98777.25
2022-10-03T20:54:25.031Z,98771.38
2022-10-03T20:56:55.952Z,98787.00
2022-10-03T20:59:39.249Z,98786.69
2022-10-03T21:02:29.791Z,98790.78
2022-10-03T21:05:02.001Z,98785.88
2022-10-03T21:12:03.503Z,98793.66
2022-10-03T21:14:34.643Z,98799.16
2022-10-03T21:17:03.335Z,98790.94
2022-10-03T21:19:33.765Z,98792.13
2022-10-03T21:22:05.264Z,98795.63
2022-10-03T21:24:41.684Z,98800.69
2022-10-03T21:27:15.852Z,98789.03
2022-10-03T21:29:53.943Z,98806.19
2022-10-03T21:32:43.151Z,98805.44
2022-10-03T21:35:16.423Z,98796.38
2022-10-03T21:37:51.992Z,98805.06
2022-10-03T21:40:31.576Z,98810.97
2022-10-03T21:43:13.437Z,98801.19
2022-10-03T21:45:55.372Z,98798.06
2022-10-03T21:48:59.875Z,98811.41
2022-10-03T21:52:05.956Z,98813.81
2022-10-03T21:54:51.687Z,98819.47
2022-10-03T21:57:37.873Z,98822.00
2022-10-03T22:00:11.997Z,98826.19
2022-10-03T22:03:04.023Z,98837.50
2022-10-03T22:06:03.936Z,98839.78
2022-10-03T22:08:34.375Z,98840.13
2022-10-03T22:11:13.813Z,98855.03
2022-10-03T22:13:48.950Z,98856.13
2022-10-03T22:16:39.005Z,98855.47
2022-10-03T22:19:13.173Z,98863.19
2022-10-03T22:22:10.719Z,98866.72
2022-10-03T22:24:44.036Z,98880.63
2022-10-03T22:27:40.576Z,98875.69
2022-10-03T22:30:11.896Z,98881.28
2022-10-03T22:33:04.146Z,98892.72
2022-10-03T22:35:37.556Z,98882.78
2022-10-03T22:38:07.061Z,98890.59
2022-10-03T22:40:36.656Z,98890.59
2022-10-03T22:43:07.494Z,98884.38
2022-10-03T22:45:39.834Z,98887.88
2022-10-03T22:48:15.946Z,98890.59
2022-10-03T22:50:44.961Z,98899.41
2022-10-03T22:53:17.611Z,98897.53
2022-10-03T22:55:53.423Z,98904.56
2022-10-03T22:58:23.091Z,98904.06
2022-10-03T23:00:54.223Z,98893.97
2022-10-03T23:03:27.106Z,98907.97
2022-10-03T23:06:10.582Z,98895.50
2022-10-03T23:08:40.783Z,98895.91
2022-10-03T23:11:22.710Z,98896.47
2022-10-03T23:13:50.998Z,98899.72
2022-10-03T23:16:54.177Z,98899.66
2022-10-03T23:19:34.367Z,98902.50
2022-10-03T23:22:02.211Z,98893.06
2022-10-03T23:24:49.231Z,98894.06
2022-10-03T23:27:36.002Z,98901.25
2022-10-03T23:30:12.425Z,98917.34
2022-10-03T23:32:48.615Z,98921.22
2022-10-03T23:35:31.275Z,98918.97
2022-10-03T23:38:00.179Z,98926.94
2022-10-03T23:40:47.912Z,98925.19
2022-10-03T23:43:54.603Z,98929.81
2022-10-03T23:46:24.587Z,98929.28
2022-10-03T23:48:58.683Z,98936.25
2022-10-03T23:51:32.027Z,98935.09
2022-10-03T23:54:04.685Z,98934.00
2022-10-03T23:56:40.195Z,98949.38
2022-10-03T23:59:10.480Z,98939.00
